sensor_id;sensor_type;location;lat;lon;timestamp;P1;durP1;ratioP1;P2;durP2;ratioP2
7607;SDS011;3845;48.120;11.534;2023-06-22T00:02:18;5.20;;;3.33;;
7607;SDS011;3845;48.120;11.534;2023-06-22T00:04:44;5.87;;;3.60;;
7607;SDS011;3845;48.120;11.534;2023-06-22T00:07:09;7.87;;;3.30;;
7607;SDS011;3845;48.120;11.534;2023-06-22T00:09:35;6.20;;;3.90;;
7607;SDS011;3845;48.120;11.534;2023-06-22T00:12:00;5.20;;;3.37;;
7607;SDS011;3845;48.120;11.534;2023-06-22T00:14:25;5.03;;;3.70;;
7607;SDS011;3845;48.120;11.534;2023-06-22T00:16:51;6.13;;;3.40;;
7607;SDS011;3845;48.120;11.534;2023-06-22T00:19:20;6.70;;;3.40;;
7607;SDS011;3845;48.120;11.534;2023-06-22T00:21:47;6.10;;;3.57;;
7607;SDS011;3845;48.120;11.534;2023-06-22T00:24:12;5.73;;;3.30;;
7607;SDS011;3845;48.120;11.534;2023-06-22T00:26:38;6.10;;;3.50;;
7607;SDS011;3845;48.120;11.534;2023-06-22T00:29:03;4.50;;;3.40;;
7607;SDS011;3845;48.120;11.534;2023-06-22T00:31:29;7.60;;;3.90;;
7607;SDS011;3845;48.120;11.534;2023-06-22T00:33:54;5.50;;;3.70;;
7607;SDS011;3845;48.120;11.534;2023-06-22T00:36:19;3.60;;;2.97;;
7607;SDS011;3845;48.120;11.534;2023-06-22T00:38:45;5.63;;;2.97;;
7607;SDS011;3845;48.120;11.534;2023-06-22T00:41:10;5.67;;;3.37;;
7607;SDS011;3845;48.120;11.534;2023-06-22T00:43:35;4.20;;;3.00;;
7607;SDS011;3845;48.120;11.534;2023-06-22T00:46:00;5.37;;;3.00;;
7607;SDS011;3845;48.120;11.534;2023-06-22T00:48:26;4.73;;;3.10;;
7607;SDS011;3845;48.120;11.534;2023-06-22T00:50:51;5.43;;;3.40;;
7607;SDS011;3845;48.120;11.534;2023-06-22T00:53:18;4.20;;;3.03;;
7607;SDS011;3845;48.120;11.534;2023-06-22T00:55:44;5.60;;;3.23;;
7607;SDS011;3845;48.120;11.534;2023-06-22T00:58:16;4.77;;;3.40;;
7607;SDS011;3845;48.120;11.534;2023-06-22T01:00:41;5.23;;;3.33;;
7607;SDS011;3845;48.120;11.534;2023-06-22T01:03:07;5.23;;;3.23;;
7607;SDS011;3845;48.120;11.534;2023-06-22T01:05:36;5.07;;;3.50;;
7607;SDS011;3845;48.120;11.534;2023-06-22T01:11:07;7.50;;;3.50;;
7607;SDS011;3845;48.120;11.534;2023-06-22T01:13:40;4.80;;;3.30;;
7607;SDS011;3845;48.120;11.534;2023-06-22T01:16:31;4.43;;;2.97;;
7607;SDS011;3845;48.120;11.534;2023-06-22T01:19:00;6.23;;;4.03;;
7607;SDS011;3845;48.120;11.534;2023-06-22T01:21:28;5.90;;;3.50;;
7607;SDS011;3845;48.120;11.534;2023-06-22T01:23:59;5.20;;;3.17;;
7607;SDS011;3845;48.120;11.534;2023-06-22T01:26:39;6.63;;;3.50;;
7607;SDS011;3845;48.120;11.534;2023-06-22T01:29:17;6.07;;;3.30;;
7607;SDS011;3845;48.120;11.534;2023-06-22T01:31:42;6.63;;;3.40;;
7607;SDS011;3845;48.120;11.534;2023-06-22T01:34:09;4.33;;;3.27;;
7607;SDS011;3845;48.120;11.534;2023-06-22T01:36:36;4.33;;;2.90;;
7607;SDS011;3845;48.120;11.534;2023-06-22T01:39:03;4.77;;;3.00;;
7607;SDS011;3845;48.120;11.534;2023-06-22T01:41:33;5.30;;;3.23;;
7607;SDS011;3845;48.120;11.534;2023-06-22T01:43:59;4.60;;;3.10;;
7607;SDS011;3845;48.120;11.534;2023-06-22T01:46:25;4.93;;;3.23;;
7607;SDS011;3845;48.120;11.534;2023-06-22T01:48:51;4.43;;;3.40;;
7607;SDS011;3845;48.120;11.534;2023-06-22T01:51:16;4.73;;;2.70;;
7607;SDS011;3845;48.120;11.534;2023-06-22T01:53:42;6.30;;;3.27;;
7607;SDS011;3845;48.120;11.534;2023-06-22T01:56:07;4.97;;;3.33;;
7607;SDS011;3845;48.120;11.534;2023-06-22T01:58:33;4.30;;;3.07;;
7607;SDS011;3845;48.120;11.534;2023-06-22T02:01:09;5.50;;;3.27;;
7607;SDS011;3845;48.120;11.534;2023-06-22T02:03:37;4.60;;;3.17;;
7607;SDS011;3845;48.120;11.534;2023-06-22T02:06:05;4.63;;;3.13;;
7607;SDS011;3845;48.120;11.534;2023-06-22T02:08:49;3.60;;;2.90;;
7607;SDS011;3845;48.120;11.534;2023-06-22T02:11:19;5.27;;;3.03;;
7607;SDS011;3845;48.120;11.534;2023-06-22T02:13:45;5.43;;;3.20;;
7607;SDS011;3845;48.120;11.534;2023-06-22T02:16:11;6.03;;;3.27;;
7607;SDS011;3845;48.120;11.534;2023-06-22T02:18:37;4.03;;;3.00;;
7607;SDS011;3845;48.120;11.534;2023-06-22T02:21:02;5.53;;;3.50;;
7607;SDS011;3845;48.120;11.534;2023-06-22T02:23:28;5.23;;;3.50;;
7607;SDS011;3845;48.120;11.534;2023-06-22T02:25:53;4.87;;;3.23;;
7607;SDS011;3845;48.120;11.534;2023-06-22T02:28:19;3.43;;;3.10;;
7607;SDS011;3845;48.120;11.534;2023-06-22T02:30:44;7.77;;;4.10;;
7607;SDS011;3845;48.120;11.534;2023-06-22T02:33:09;4.57;;;3.40;;
7607;SDS011;3845;48.120;11.534;2023-06-22T02:35:35;5.60;;;3.67;;
7607;SDS011;3845;48.120;11.534;2023-06-22T02:38:01;4.47;;;3.40;;
7607;SDS011;3845;48.120;11.534;2023-06-22T02:40:27;4.60;;;3.30;;
7607;SDS011;3845;48.120;11.534;2023-06-22T02:42:53;7.33;;;3.97;;
7607;SDS011;3845;48.120;11.534;2023-06-22T02:45:18;5.77;;;3.90;;
7607;SDS011;3845;48.120;11.534;2023-06-22T02:47:43;6.67;;;3.93;;
7607;SDS011;3845;48.120;11.534;2023-06-22T02:50:09;5.93;;;3.57;;
7607;SDS011;3845;48.120;11.534;2023-06-22T02:52:34;6.77;;;3.80;;
7607;SDS011;3845;48.120;11.534;2023-06-22T02:55:00;6.87;;;3.90;;
7607;SDS011;3845;48.120;11.534;2023-06-22T02:57:25;4.23;;;3.47;;
7607;SDS011;3845;48.120;11.534;2023-06-22T02:59:50;6.60;;;3.60;;
7607;SDS011;3845;48.120;11.534;2023-06-22T03:02:15;6.80;;;3.97;;
7607;SDS011;3845;48.120;11.534;2023-06-22T03:04:41;5.20;;;3.90;;
7607;SDS011;3845;48.120;11.534;2023-06-22T03:07:07;10.13;;;4.93;;
7607;SDS011;3845;48.120;11.534;2023-06-22T03:09:32;7.27;;;3.83;;
7607;SDS011;3845;48.120;11.534;2023-06-22T03:11:58;5.03;;;3.50;;
7607;SDS011;3845;48.120;11.534;2023-06-22T03:14:23;6.93;;;4.37;;
7607;SDS011;3845;48.120;11.534;2023-06-22T03:16:48;5.70;;;3.90;;
7607;SDS011;3845;48.120;11.534;2023-06-22T03:19:13;4.23;;;3.50;;
7607;SDS011;3845;48.120;11.534;2023-06-22T03:21:39;5.87;;;3.40;;
7607;SDS011;3845;48.120;11.534;2023-06-22T03:24:05;4.13;;;3.20;;
7607;SDS011;3845;48.120;11.534;2023-06-22T03:26:31;5.00;;;3.50;;
7607;SDS011;3845;48.120;11.534;2023-06-22T03:28:56;3.97;;;3.57;;
7607;SDS011;3845;48.120;11.534;2023-06-22T03:31:21;5.00;;;3.80;;
7607;SDS011;3845;48.120;11.534;2023-06-22T03:33:47;5.53;;;3.50;;
7607;SDS011;3845;48.120;11.534;2023-06-22T03:36:17;6.87;;;3.70;;
7607;SDS011;3845;48.120;11.534;2023-06-22T03:38:45;5.97;;;3.90;;
7607;SDS011;3845;48.120;11.534;2023-06-22T03:41:12;4.80;;;3.73;;
7607;SDS011;3845;48.120;11.534;2023-06-22T03:43:38;4.77;;;3.53;;
7607;SDS011;3845;48.120;11.534;2023-06-22T03:46:03;7.20;;;3.97;;
7607;SDS011;3845;48.120;11.534;2023-06-22T03:48:28;7.03;;;4.20;;
7607;SDS011;3845;48.120;11.534;2023-06-22T03:50:54;6.70;;;4.57;;
7607;SDS011;3845;48.120;11.534;2023-06-22T03:53:19;8.00;;;4.40;;
7607;SDS011;3845;48.120;11.534;2023-06-22T03:55:48;6.20;;;4.23;;
7607;SDS011;3845;48.120;11.534;2023-06-22T03:58:15;6.97;;;4.40;;
7607;SDS011;3845;48.120;11.534;2023-06-22T04:00:40;7.90;;;4.73;;
7607;SDS011;3845;48.120;11.534;2023-06-22T04:03:05;5.73;;;4.07;;
7607;SDS011;3845;48.120;11.534;2023-06-22T04:05:32;7.37;;;4.40;;
7607;SDS011;3845;48.120;11.534;2023-06-22T04:07:57;6.33;;;4.17;;
7607;SDS011;3845;48.120;11.534;2023-06-22T04:10:23;6.53;;;4.73;;
7607;SDS011;3845;48.120;11.534;2023-06-22T04:12:48;6.47;;;4.47;;
7607;SDS011;3845;48.120;11.534;2023-06-22T04:15:13;6.63;;;4.47;;
7607;SDS011;3845;48.120;11.534;2023-06-22T04:17:38;6.70;;;3.90;;
7607;SDS011;3845;48.120;11.534;2023-06-22T04:20:04;6.37;;;3.93;;
7607;SDS011;3845;48.120;11.534;2023-06-22T04:22:30;6.47;;;4.20;;
7607;SDS011;3845;48.120;11.534;2023-06-22T04:24:55;7.43;;;4.30;;
7607;SDS011;3845;48.120;11.534;2023-06-22T04:27:20;7.37;;;4.60;;
7607;SDS011;3845;48.120;11.534;2023-06-22T04:29:48;7.27;;;4.47;;
7607;SDS011;3845;48.120;11.534;2023-06-22T04:32:14;5.40;;;4.30;;
7607;SDS011;3845;48.120;11.534;2023-06-22T04:34:40;6.03;;;4.40;;
7607;SDS011;3845;48.120;11.534;2023-06-22T04:37:05;6.97;;;4.30;;
7607;SDS011;3845;48.120;11.534;2023-06-22T04:39:31;3.93;;;3.53;;
7607;SDS011;3845;48.120;11.534;2023-06-22T04:41:56;6.67;;;4.83;;
7607;SDS011;3845;48.120;11.534;2023-06-22T04:44:25;8.00;;;4.53;;
7607;SDS011;3845;48.120;11.534;2023-06-22T04:46:51;5.37;;;4.33;;
7607;SDS011;3845;48.120;11.534;2023-06-22T04:49:25;6.67;;;4.50;;
7607;SDS011;3845;48.120;11.534;2023-06-22T04:51:57;8.70;;;5.00;;
7607;SDS011;3845;48.120;11.534;2023-06-22T04:54:23;8.50;;;5.00;;
7607;SDS011;3845;48.120;11.534;2023-06-22T04:56:48;7.30;;;4.63;;
7607;SDS011;3845;48.120;11.534;2023-06-22T04:59:25;6.40;;;4.00;;
7607;SDS011;3845;48.120;11.534;2023-06-22T05:01:56;6.63;;;4.03;;
7607;SDS011;3845;48.120;11.534;2023-06-22T05:04:23;6.37;;;4.10;;
7607;SDS011;3845;48.120;11.534;2023-06-22T05:06:49;6.07;;;4.40;;
7607;SDS011;3845;48.120;11.534;2023-06-22T05:09:14;7.53;;;4.30;;
7607;SDS011;3845;48.120;11.534;2023-06-22T05:11:39;6.10;;;4.50;;
7607;SDS011;3845;48.120;11.534;2023-06-22T05:14:05;6.80;;;4.87;;
7607;SDS011;3845;48.120;11.534;2023-06-22T05:16:30;5.03;;;4.50;;
7607;SDS011;3845;48.120;11.534;2023-06-22T05:18:55;6.73;;;4.60;;
7607;SDS011;3845;48.120;11.534;2023-06-22T05:21:25;5.07;;;4.57;;
7607;SDS011;3845;48.120;11.534;2023-06-22T05:23:52;7.10;;;4.70;;
7607;SDS011;3845;48.120;11.534;2023-06-22T05:26:18;7.03;;;4.53;;
7607;SDS011;3845;48.120;11.534;2023-06-22T05:28:44;7.60;;;4.20;;
7607;SDS011;3845;48.120;11.534;2023-06-22T05:31:13;6.50;;;4.67;;
7607;SDS011;3845;48.120;11.534;2023-06-22T05:33:39;6.67;;;4.43;;
7607;SDS011;3845;48.120;11.534;2023-06-22T05:36:05;6.67;;;3.97;;
7607;SDS011;3845;48.120;11.534;2023-06-22T05:38:30;7.20;;;4.77;;
7607;SDS011;3845;48.120;11.534;2023-06-22T05:40:56;5.60;;;4.57;;
7607;SDS011;3845;48.120;11.534;2023-06-22T05:43:21;8.17;;;5.20;;
7607;SDS011;3845;48.120;11.534;2023-06-22T05:45:46;5.93;;;4.80;;
7607;SDS011;3845;48.120;11.534;2023-06-22T05:48:11;5.40;;;4.87;;
7607;SDS011;3845;48.120;11.534;2023-06-22T05:50:37;7.73;;;5.20;;
7607;SDS011;3845;48.120;11.534;2023-06-22T05:53:02;7.00;;;4.67;;
7607;SDS011;3845;48.120;11.534;2023-06-22T05:55:28;8.23;;;6.30;;
7607;SDS011;3845;48.120;11.534;2023-06-22T05:57:53;10.90;;;8.77;;
7607;SDS011;3845;48.120;11.534;2023-06-22T06:00:18;10.90;;;8.87;;
7607;SDS011;3845;48.120;11.534;2023-06-22T06:02:44;8.27;;;7.35;;
7607;SDS011;3845;48.120;11.534;2023-06-22T06:05:13;6.88;;;6.07;;
7607;SDS011;3845;48.120;11.534;2023-06-22T06:07:39;7.63;;;5.80;;
7607;SDS011;3845;48.120;11.534;2023-06-22T06:10:05;5.85;;;5.20;;
7607;SDS011;3845;48.120;11.534;2023-06-22T06:12:31;6.20;;;4.75;;
7607;SDS011;3845;48.120;11.534;2023-06-22T06:14:56;8.43;;;4.93;;
7607;SDS011;3845;48.120;11.534;2023-06-22T06:17:22;6.25;;;4.90;;
7607;SDS011;3845;48.120;11.534;2023-06-22T06:19:47;7.30;;;4.78;;
7607;SDS011;3845;48.120;11.534;2023-06-22T06:22:12;8.68;;;4.70;;
7607;SDS011;3845;48.120;11.534;2023-06-22T06:24:37;9.65;;;4.97;;
7607;SDS011;3845;48.120;11.534;2023-06-22T06:27:03;9.50;;;5.20;;
7607;SDS011;3845;48.120;11.534;2023-06-22T06:29:29;7.70;;;4.78;;
7607;SDS011;3845;48.120;11.534;2023-06-22T06:31:55;6.18;;;4.60;;
7607;SDS011;3845;48.120;11.534;2023-06-22T06:34:20;7.60;;;4.45;;
7607;SDS011;3845;48.120;11.534;2023-06-22T06:36:45;7.55;;;4.70;;
7607;SDS011;3845;48.120;11.534;2023-06-22T06:39:11;7.57;;;4.78;;
7607;SDS011;3845;48.120;11.534;2023-06-22T06:41:36;6.97;;;4.78;;
7607;SDS011;3845;48.120;11.534;2023-06-22T06:44:02;8.35;;;4.55;;
7607;SDS011;3845;48.120;11.534;2023-06-22T06:46:27;6.07;;;4.20;;
7607;SDS011;3845;48.120;11.534;2023-06-22T06:48:52;9.00;;;4.50;;
7607;SDS011;3845;48.120;11.534;2023-06-22T06:51:18;5.90;;;4.15;;
7607;SDS011;3845;48.120;11.534;2023-06-22T06:53:43;7.88;;;4.80;;
7607;SDS011;3845;48.120;11.534;2023-06-22T06:56:08;7.40;;;4.72;;
7607;SDS011;3845;48.120;11.534;2023-06-22T06:58:35;6.30;;;5.13;;
7607;SDS011;3845;48.120;11.534;2023-06-22T07:01:01;9.10;;;5.30;;
7607;SDS011;3845;48.120;11.534;2023-06-22T07:03:28;8.55;;;4.75;;
7607;SDS011;3845;48.120;11.534;2023-06-22T07:05:53;7.22;;;4.70;;
7607;SDS011;3845;48.120;11.534;2023-06-22T07:08:18;8.48;;;4.38;;
7607;SDS011;3845;48.120;11.534;2023-06-22T07:10:43;8.38;;;4.40;;
7607;SDS011;3845;48.120;11.534;2023-06-22T07:13:09;6.93;;;5.07;;
7607;SDS011;3845;48.120;11.534;2023-06-22T07:15:34;7.22;;;4.70;;
7607;SDS011;3845;48.120;11.534;2023-06-22T07:17:59;8.68;;;5.13;;
7607;SDS011;3845;48.120;11.534;2023-06-22T07:20:25;7.68;;;4.53;;
7607;SDS011;3845;48.120;11.534;2023-06-22T07:22:51;8.25;;;4.60;;
7607;SDS011;3845;48.120;11.534;2023-06-22T07:25:16;8.45;;;4.60;;
7607;SDS011;3845;48.120;11.534;2023-06-22T07:27:46;7.20;;;4.60;;
7607;SDS011;3845;48.120;11.534;2023-06-22T07:30:32;6.75;;;4.05;;
7607;SDS011;3845;48.120;11.534;2023-06-22T07:32:58;8.85;;;4.93;;
7607;SDS011;3845;48.120;11.534;2023-06-22T07:35:28;7.53;;;4.80;;
7607;SDS011;3845;48.120;11.534;2023-06-22T07:37:54;6.30;;;4.22;;
7607;SDS011;3845;48.120;11.534;2023-06-22T07:40:19;6.85;;;4.40;;
7607;SDS011;3845;48.120;11.534;2023-06-22T07:42:44;7.68;;;4.70;;
7607;SDS011;3845;48.120;11.534;2023-06-22T07:45:13;9.88;;;4.80;;
7607;SDS011;3845;48.120;11.534;2023-06-22T07:47:38;9.90;;;4.85;;
7607;SDS011;3845;48.120;11.534;2023-06-22T07:50:03;6.43;;;4.10;;
7607;SDS011;3845;48.120;11.534;2023-06-22T07:52:29;10.63;;;5.72;;
7607;SDS011;3845;48.120;11.534;2023-06-22T07:54:55;9.07;;;5.43;;
7607;SDS011;3845;48.120;11.534;2023-06-22T07:57:20;9.52;;;4.97;;
7607;SDS011;3845;48.120;11.534;2023-06-22T07:59:46;7.80;;;4.43;;
7607;SDS011;3845;48.120;11.534;2023-06-22T08:02:11;9.25;;;4.82;;
7607;SDS011;3845;48.120;11.534;2023-06-22T08:04:37;6.68;;;4.43;;
7607;SDS011;3845;48.120;11.534;2023-06-22T08:07:03;7.57;;;4.80;;
7607;SDS011;3845;48.120;11.534;2023-06-22T08:09:29;9.05;;;4.90;;
7607;SDS011;3845;48.120;11.534;2023-06-22T08:11:55;9.32;;;4.82;;
7607;SDS011;3845;48.120;11.534;2023-06-22T08:14:21;8.25;;;5.40;;
7607;SDS011;3845;48.120;11.534;2023-06-22T08:16:47;6.97;;;5.13;;
7607;SDS011;3845;48.120;11.534;2023-06-22T08:19:13;11.05;;;5.88;;
7607;SDS011;3845;48.120;11.534;2023-06-22T08:21:38;7.30;;;5.38;;
7607;SDS011;3845;48.120;11.534;2023-06-22T08:24:03;9.18;;;5.65;;
7607;SDS011;3845;48.120;11.534;2023-06-22T08:26:29;10.07;;;5.97;;
7607;SDS011;3845;48.120;11.534;2023-06-22T08:28:54;9.55;;;6.32;;
7607;SDS011;3845;48.120;11.534;2023-06-22T08:31:19;7.25;;;5.45;;
7607;SDS011;3845;48.120;11.534;2023-06-22T08:33:45;8.93;;;5.72;;
7607;SDS011;3845;48.120;11.534;2023-06-22T08:36:11;9.75;;;6.35;;
7607;SDS011;3845;48.120;11.534;2023-06-22T08:38:38;11.73;;;6.20;;
7607;SDS011;3845;48.120;11.534;2023-06-22T08:41:03;6.80;;;5.20;;
7607;SDS011;3845;48.120;11.534;2023-06-22T08:43:28;9.38;;;5.32;;
7607;SDS011;3845;48.120;11.534;2023-06-22T08:45:53;14.20;;;6.45;;
7607;SDS011;3845;48.120;11.534;2023-06-22T08:48:19;12.57;;;6.25;;
7607;SDS011;3845;48.120;11.534;2023-06-22T08:50:44;13.13;;;6.65;;
7607;SDS011;3845;48.120;11.534;2023-06-22T08:53:09;10.25;;;5.63;;
7607;SDS011;3845;48.120;11.534;2023-06-22T08:55:35;11.13;;;6.10;;
7607;SDS011;3845;48.120;11.534;2023-06-22T08:58:00;8.38;;;5.90;;
7607;SDS011;3845;48.120;11.534;2023-06-22T09:00:25;10.00;;;5.95;;
7607;SDS011;3845;48.120;11.534;2023-06-22T09:02:52;9.05;;;5.50;;
7607;SDS011;3845;48.120;11.534;2023-06-22T09:05:17;10.05;;;6.10;;
7607;SDS011;3845;48.120;11.534;2023-06-22T09:07:43;8.07;;;5.38;;
7607;SDS011;3845;48.120;11.534;2023-06-22T09:10:08;11.68;;;6.05;;
7607;SDS011;3845;48.120;11.534;2023-06-22T09:12:33;11.63;;;6.28;;
7607;SDS011;3845;48.120;11.534;2023-06-22T09:14:59;11.05;;;5.85;;
7607;SDS011;3845;48.120;11.534;2023-06-22T09:17:25;13.68;;;6.50;;
7607;SDS011;3845;48.120;11.534;2023-06-22T09:19:51;13.65;;;6.57;;
7607;SDS011;3845;48.120;11.534;2023-06-22T09:22:16;13.43;;;6.22;;
7607;SDS011;3845;48.120;11.534;2023-06-22T09:24:41;7.93;;;5.50;;
7607;SDS011;3845;48.120;11.534;2023-06-22T09:27:07;11.75;;;6.07;;
7607;SDS011;3845;48.120;11.534;2023-06-22T09:29:32;10.30;;;6.67;;
7607;SDS011;3845;48.120;11.534;2023-06-22T09:31:58;9.43;;;5.97;;
7607;SDS011;3845;48.120;11.534;2023-06-22T09:34:24;12.70;;;5.93;;
7607;SDS011;3845;48.120;11.534;2023-06-22T09:36:50;12.80;;;6.22;;
7607;SDS011;3845;48.120;11.534;2023-06-22T09:39:15;14.23;;;6.27;;
7607;SDS011;3845;48.120;11.534;2023-06-22T09:41:40;8.70;;;5.60;;
7607;SDS011;3845;48.120;11.534;2023-06-22T09:44:05;16.23;;;6.57;;
7607;SDS011;3845;48.120;11.534;2023-06-22T09:46:31;11.35;;;6.20;;
7607;SDS011;3845;48.120;11.534;2023-06-22T09:48:56;11.70;;;6.53;;
7607;SDS011;3845;48.120;11.534;2023-06-22T09:51:22;13.45;;;6.82;;
7607;SDS011;3845;48.120;11.534;2023-06-22T09:53:48;13.38;;;6.03;;
7607;SDS011;3845;48.120;11.534;2023-06-22T09:56:17;10.88;;;6.28;;
7607;SDS011;3845;48.120;11.534;2023-06-22T09:58:43;10.50;;;5.67;;
7607;SDS011;3845;48.120;11.534;2023-06-22T10:01:09;12.32;;;6.38;;
7607;SDS011;3845;48.120;11.534;2023-06-22T10:03:35;9.85;;;6.20;;
7607;SDS011;3845;48.120;11.534;2023-06-22T10:06:01;10.63;;;5.95;;
7607;SDS011;3845;48.120;11.534;2023-06-22T10:08:26;8.15;;;5.47;;
7607;SDS011;3845;48.120;11.534;2023-06-22T10:10:52;9.73;;;5.70;;
7607;SDS011;3845;48.120;11.534;2023-06-22T10:13:17;11.02;;;6.47;;
7607;SDS011;3845;48.120;11.534;2023-06-22T10:15:43;10.57;;;6.43;;
7607;SDS011;3845;48.120;11.534;2023-06-22T10:18:14;9.75;;;5.68;;
7607;SDS011;3845;48.120;11.534;2023-06-22T10:20:39;9.50;;;6.65;;
7607;SDS011;3845;48.120;11.534;2023-06-22T10:23:05;12.57;;;6.57;;
7607;SDS011;3845;48.120;11.534;2023-06-22T10:25:30;12.52;;;5.65;;
7607;SDS011;3845;48.120;11.534;2023-06-22T10:27:55;12.07;;;6.45;;
7607;SDS011;3845;48.120;11.534;2023-06-22T10:30:20;10.57;;;6.05;;
7607;SDS011;3845;48.120;11.534;2023-06-22T10:32:46;13.43;;;6.38;;
7607;SDS011;3845;48.120;11.534;2023-06-22T10:35:11;11.10;;;6.28;;
7607;SDS011;3845;48.120;11.534;2023-06-22T10:37:38;11.40;;;6.47;;
7607;SDS011;3845;48.120;11.534;2023-06-22T10:40:04;11.20;;;6.10;;
7607;SDS011;3845;48.120;11.534;2023-06-22T10:42:30;11.93;;;6.25;;
7607;SDS011;3845;48.120;11.534;2023-06-22T10:44:55;13.90;;;6.07;;
7607;SDS011;3845;48.120;11.534;2023-06-22T10:47:21;13.23;;;6.07;;
7607;SDS011;3845;48.120;11.534;2023-06-22T10:49:46;8.55;;;6.10;;
7607;SDS011;3845;48.120;11.534;2023-06-22T10:52:11;12.93;;;6.45;;
7607;SDS011;3845;48.120;11.534;2023-06-22T10:54:37;12.13;;;5.90;;
7607;SDS011;3845;48.120;11.534;2023-06-22T10:57:02;15.63;;;6.75;;
7607;SDS011;3845;48.120;11.534;2023-06-22T10:59:28;9.18;;;5.95;;
7607;SDS011;3845;48.120;11.534;2023-06-22T11:01:55;8.52;;;5.72;;
7607;SDS011;3845;48.120;11.534;2023-06-22T11:04:21;9.65;;;5.68;;
7607;SDS011;3845;48.120;11.534;2023-06-22T11:06:47;12.80;;;6.45;;
7607;SDS011;3845;48.120;11.534;2023-06-22T11:09:13;11.15;;;5.50;;
7607;SDS011;3845;48.120;11.534;2023-06-22T11:11:43;14.57;;;6.10;;
7607;SDS011;3845;48.120;11.534;2023-06-22T11:14:09;11.73;;;6.10;;
7607;SDS011;3845;48.120;11.534;2023-06-22T11:16:34;9.82;;;5.63;;
7607;SDS011;3845;48.120;11.534;2023-06-22T11:18:59;10.80;;;5.50;;
7607;SDS011;3845;48.120;11.534;2023-06-22T11:21:24;9.77;;;5.60;;
7607;SDS011;3845;48.120;11.534;2023-06-22T11:23:50;8.80;;;5.40;;
7607;SDS011;3845;48.120;11.534;2023-06-22T11:26:15;9.52;;;5.50;;
7607;SDS011;3845;48.120;11.534;2023-06-22T11:28:40;11.68;;;5.90;;
7607;SDS011;3845;48.120;11.534;2023-06-22T11:31:06;13.65;;;6.38;;
7607;SDS011;3845;48.120;11.534;2023-06-22T11:33:32;13.32;;;6.63;;
7607;SDS011;3845;48.120;11.534;2023-06-22T11:35:57;11.18;;;6.28;;
7607;SDS011;3845;48.120;11.534;2023-06-22T11:38:22;11.63;;;6.25;;
7607;SDS011;3845;48.120;11.534;2023-06-22T11:40:47;15.02;;;6.30;;
7607;SDS011;3845;48.120;11.534;2023-06-22T11:43:13;11.85;;;5.65;;
7607;SDS011;3845;48.120;11.534;2023-06-22T11:45:39;13.95;;;5.90;;
7607;SDS011;3845;48.120;11.534;2023-06-22T11:48:05;13.95;;;6.28;;
7607;SDS011;3845;48.120;11.534;2023-06-22T11:50:30;13.02;;;6.15;;
7607;SDS011;3845;48.120;11.534;2023-06-22T11:53:00;10.55;;;6.10;;
7607;SDS011;3845;48.120;11.534;2023-06-22T11:55:26;14.23;;;6.53;;
7607;SDS011;3845;48.120;11.534;2023-06-22T11:57:55;12.98;;;6.20;;
7607;SDS011;3845;48.120;11.534;2023-06-22T12:00:21;10.75;;;5.60;;
7607;SDS011;3845;48.120;11.534;2023-06-22T12:02:48;11.55;;;5.80;;
7607;SDS011;3845;48.120;11.534;2023-06-22T12:05:14;12.93;;;6.60;;
7607;SDS011;3845;48.120;11.534;2023-06-22T12:07:39;10.57;;;5.85;;
7607;SDS011;3845;48.120;11.534;2023-06-22T12:10:05;13.88;;;5.95;;
7607;SDS011;3845;48.120;11.534;2023-06-22T12:12:30;15.32;;;6.20;;
7607;SDS011;3845;48.120;11.534;2023-06-22T12:14:56;13.35;;;6.60;;
7607;SDS011;3845;48.120;11.534;2023-06-22T12:17:21;11.40;;;6.65;;
7607;SDS011;3845;48.120;11.534;2023-06-22T12:19:46;12.73;;;6.15;;
7607;SDS011;3845;48.120;11.534;2023-06-22T12:22:11;12.02;;;5.47;;
7607;SDS011;3845;48.120;11.534;2023-06-22T12:24:37;12.63;;;5.72;;
7607;SDS011;3845;48.120;11.534;2023-06-22T12:27:03;13.85;;;6.82;;
7607;SDS011;3845;48.120;11.534;2023-06-22T12:29:29;9.88;;;6.43;;
7607;SDS011;3845;48.120;11.534;2023-06-22T12:31:54;17.55;;;6.47;;
7607;SDS011;3845;48.120;11.534;2023-06-22T12:34:19;13.25;;;6.75;;
7607;SDS011;3845;48.120;11.534;2023-06-22T12:36:45;16.02;;;6.03;;
7607;SDS011;3845;48.120;11.534;2023-06-22T12:39:12;11.00;;;5.90;;
7607;SDS011;3845;48.120;11.534;2023-06-22T12:41:37;10.45;;;5.68;;
7607;SDS011;3845;48.120;11.534;2023-06-22T12:44:02;12.57;;;5.90;;
7607;SDS011;3845;48.120;11.534;2023-06-22T12:46:28;9.88;;;6.13;;
7607;SDS011;3845;48.120;11.534;2023-06-22T12:48:55;9.25;;;5.20;;
7607;SDS011;3845;48.120;11.534;2023-06-22T12:51:20;10.52;;;6.20;;
7607;SDS011;3845;48.120;11.534;2023-06-22T12:53:47;11.50;;;5.80;;
7607;SDS011;3845;48.120;11.534;2023-06-22T12:56:12;10.93;;;6.15;;
7607;SDS011;3845;48.120;11.534;2023-06-22T12:58:37;10.63;;;5.57;;
7607;SDS011;3845;48.120;11.534;2023-06-22T13:01:03;13.40;;;5.72;;
7607;SDS011;3845;48.120;11.534;2023-06-22T13:03:28;11.15;;;5.75;;
7607;SDS011;3845;48.120;11.534;2023-06-22T13:05:53;11.90;;;6.13;;
7607;SDS011;3845;48.120;11.534;2023-06-22T13:08:19;10.57;;;5.70;;
7607;SDS011;3845;48.120;11.534;2023-06-22T13:10:44;9.27;;;5.10;;
7607;SDS011;3845;48.120;11.534;2023-06-22T13:13:09;11.68;;;5.20;;
7607;SDS011;3845;48.120;11.534;2023-06-22T13:15:35;10.80;;;6.05;;
7607;SDS011;3845;48.120;11.534;2023-06-22T13:18:00;13.85;;;5.75;;
7607;SDS011;3845;48.120;11.534;2023-06-22T13:20:25;13.32;;;6.00;;
7607;SDS011;3845;48.120;11.534;2023-06-22T13:22:50;10.30;;;5.25;;
7607;SDS011;3845;48.120;11.534;2023-06-22T13:25:16;12.38;;;5.68;;
7607;SDS011;3845;48.120;11.534;2023-06-22T13:27:44;10.30;;;5.57;;
7607;SDS011;3845;48.120;11.534;2023-06-22T13:30:09;14.27;;;5.93;;
7607;SDS011;3845;48.120;11.534;2023-06-22T13:32:35;12.73;;;5.03;;
7607;SDS011;3845;48.120;11.534;2023-06-22T13:35:00;10.77;;;5.05;;
7607;SDS011;3845;48.120;11.534;2023-06-22T13:37:25;10.70;;;5.47;;
7607;SDS011;3845;48.120;11.534;2023-06-22T13:39:51;9.73;;;5.10;;
7607;SDS011;3845;48.120;11.534;2023-06-22T13:42:16;12.02;;;5.20;;
7607;SDS011;3845;48.120;11.534;2023-06-22T13:44:43;11.52;;;6.05;;
7607;SDS011;3845;48.120;11.534;2023-06-22T13:47:09;15.20;;;6.15;;
7607;SDS011;3845;48.120;11.534;2023-06-22T13:49:34;10.32;;;5.60;;
7607;SDS011;3845;48.120;11.534;2023-06-22T13:51:59;14.05;;;6.00;;
7607;SDS011;3845;48.120;11.534;2023-06-22T13:54:25;12.70;;;6.07;;
7607;SDS011;3845;48.120;11.534;2023-06-22T13:56:50;11.40;;;5.65;;
7607;SDS011;3845;48.120;11.534;2023-06-22T13:59:15;8.98;;;5.25;;
7607;SDS011;3845;48.120;11.534;2023-06-22T14:01:41;15.60;;;6.03;;
7607;SDS011;3845;48.120;11.534;2023-06-22T14:04:08;10.93;;;5.72;;
7607;SDS011;3845;48.120;11.534;2023-06-22T14:06:33;11.55;;;5.65;;
7607;SDS011;3845;48.120;11.534;2023-06-22T14:08:58;14.55;;;6.47;;
7607;SDS011;3845;48.120;11.534;2023-06-22T14:11:24;13.80;;;5.72;;
7607;SDS011;3845;48.120;11.534;2023-06-22T14:13:49;18.67;;;5.80;;
7607;SDS011;3845;48.120;11.534;2023-06-22T14:16:15;10.32;;;5.75;;
7607;SDS011;3845;48.120;11.534;2023-06-22T14:18:40;10.10;;;5.35;;
7607;SDS011;3845;48.120;11.534;2023-06-22T14:21:05;15.15;;;5.72;;
7607;SDS011;3845;48.120;11.534;2023-06-22T14:23:31;10.95;;;5.72;;
7607;SDS011;3845;48.120;11.534;2023-06-22T14:25:56;13.73;;;5.65;;
7607;SDS011;3845;48.120;11.534;2023-06-22T14:28:21;10.93;;;5.70;;
7607;SDS011;3845;48.120;11.534;2023-06-22T14:30:47;12.85;;;5.63;;
7607;SDS011;3845;48.120;11.534;2023-06-22T14:33:12;9.05;;;5.18;;
7607;SDS011;3845;48.120;11.534;2023-06-22T14:35:37;9.73;;;5.13;;
7607;SDS011;3845;48.120;11.534;2023-06-22T14:38:03;10.68;;;5.22;;
7607;SDS011;3845;48.120;11.534;2023-06-22T14:40:31;9.80;;;5.70;;
7607;SDS011;3845;48.120;11.534;2023-06-22T14:42:56;12.55;;;5.43;;
7607;SDS011;3845;48.120;11.534;2023-06-22T14:45:22;9.85;;;5.82;;
7607;SDS011;3845;48.120;11.534;2023-06-22T14:47:48;9.27;;;4.60;;
7607;SDS011;3845;48.120;11.534;2023-06-22T14:50:13;12.15;;;5.53;;
7607;SDS011;3845;48.120;11.534;2023-06-22T14:52:38;8.02;;;5.05;;